Arctic Bay, Canada
Current Conditions -  °F | °C
As of 10:00 PM on Saturday 20 Dec 2014 (Local Time) from CYIO Reporting Station
Broken Clouds Broken Clouds  
Wind Chill: -42°   Ceiling: 6000
Heat Index: -22°   Visibility: 9mi
Dew Point: -27°   Wind: 9mph
Humidity: 76%   Direction: 170°S
Pressure: 29.89"   Gusts: NA
Location:  73.03°N, 85.17°W
Report Text: CYIO 210400Z AUTO 17008KT 9SM BKN060 BKN170 M30/M33 A2989 RMK SLP132
Loading
Personal Weather Stations






























Interactive Weather Map New forecast layout! Learn more

10-Day Weather Forecast

Advertisements
Track Severe Weather on mobile